createdAt,value
2023-05-16T00:02:24.759Z,2.70
2023-05-16T00:04:51.878Z,3.07
2023-05-16T00:07:18.488Z,2.57
2023-05-16T00:09:45.007Z,2.50
2023-05-16T00:12:11.787Z,2.17
2023-05-16T00:14:38.327Z,2.27
2023-05-16T00:17:11.405Z,2.40
2023-05-16T00:19:42.214Z,1.90
2023-05-16T00:22:08.873Z,1.73
2023-05-16T00:24:35.441Z,2.33
2023-05-16T00:27:03.829Z,2.60
2023-05-16T00:29:34.820Z,2.27
2023-05-16T00:32:01.445Z,2.10
2023-05-16T00:34:28.172Z,2.47
2023-05-16T00:36:54.865Z,3.03
2023-05-16T00:39:21.831Z,2.03
2023-05-16T00:41:49.220Z,1.97
2023-05-16T00:44:16.011Z,2.40
2023-05-16T00:46:42.930Z,1.90
2023-05-16T00:49:10.923Z,2.30
2023-05-16T00:51:39.479Z,2.47
2023-05-16T00:54:06.654Z,1.93
2023-05-16T00:56:34.034Z,2.60
2023-05-16T00:59:00.645Z,2.07
2023-05-16T01:01:28.574Z,2.00
2023-05-16T01:03:56.103Z,1.80
2023-05-16T01:06:23.246Z,1.70
2023-05-16T01:08:49.833Z,2.73
2023-05-16T01:11:27.115Z,1.83
2023-05-16T01:14:12.457Z,2.10
2023-05-16T01:16:49.703Z,2.57
2023-05-16T01:19:53.194Z,1.83
2023-05-16T01:22:47.689Z,2.67
2023-05-16T01:25:35.355Z,1.77
2023-05-16T01:28:03.166Z,2.33
2023-05-16T01:30:36.937Z,2.40
2023-05-16T01:33:03.659Z,2.00
2023-05-16T01:35:31.318Z,2.47
2023-05-16T01:38:23.253Z,1.63
2023-05-16T01:41:08.152Z,1.90
2023-05-16T01:43:42.002Z,2.80
2023-05-16T01:46:15.531Z,1.67
2023-05-16T01:48:53.361Z,2.10
2023-05-16T01:51:27.855Z,2.00
2023-05-16T01:54:01.257Z,1.80
2023-05-16T01:56:29.636Z,2.30
2023-05-16T01:58:59.384Z,2.37
2023-05-16T02:01:26.001Z,2.10
2023-05-16T02:03:52.651Z,1.90
2023-05-16T02:06:19.379Z,2.13
2023-05-16T02:08:46.656Z,1.80
2023-05-16T02:11:13.208Z,2.20
2023-05-16T02:13:39.821Z,2.03
2023-05-16T02:16:06.627Z,1.63
2023-05-16T02:18:33.354Z,1.30
2023-05-16T02:20:59.898Z,1.70
2023-05-16T02:23:26.453Z,1.73
2023-05-16T02:25:53.969Z,1.80
2023-05-16T02:28:22.456Z,1.40
2023-05-16T02:30:59.824Z,1.20
2023-05-16T02:33:28.107Z,1.73
2023-05-16T02:35:55.595Z,1.10
2023-05-16T02:38:22.338Z,1.23
2023-05-16T02:40:49.737Z,1.13
2023-05-16T02:43:16.546Z,1.90
2023-05-16T02:45:43.178Z,1.47
2023-05-16T02:48:09.913Z,1.53
2023-05-16T02:50:37.504Z,2.10
2023-05-16T02:53:04.611Z,1.43
2023-05-16T02:55:31.434Z,2.27
2023-05-16T02:57:58.030Z,2.00
2023-05-16T03:00:24.622Z,1.60
2023-05-16T03:02:51.982Z,2.30
2023-05-16T03:05:18.914Z,1.80
2023-05-16T03:07:45.624Z,2.30
2023-05-16T03:10:12.443Z,1.53
2023-05-16T03:12:38.965Z,1.93
2023-05-16T03:15:06.278Z,2.03
2023-05-16T03:17:33.036Z,1.67
2023-05-16T03:20:00.068Z,1.97
2023-05-16T03:22:27.441Z,3.93
2023-05-16T03:24:54.047Z,1.73
2023-05-16T03:27:20.769Z,1.93
2023-05-16T03:29:49.497Z,2.10
2023-05-16T03:32:16.253Z,1.87
2023-05-16T03:34:42.800Z,2.20
2023-05-16T03:37:10.896Z,2.50
2023-05-16T03:39:37.460Z,2.33
2023-05-16T03:42:04.745Z,2.10
2023-05-16T03:44:31.609Z,2.27
2023-05-16T03:46:58.186Z,2.00
2023-05-16T03:49:28.311Z,1.83
2023-05-16T03:51:55.597Z,2.47
2023-05-16T03:54:22.793Z,3.20
2023-05-16T03:56:49.803Z,3.00
2023-05-16T03:59:16.889Z,2.30
2023-05-16T04:01:43.627Z,2.33
2023-05-16T04:04:10.192Z,2.50
2023-05-16T04:06:36.727Z,2.37
2023-05-16T04:09:03.381Z,3.20
2023-05-16T04:11:29.980Z,2.37
2023-05-16T04:13:57.415Z,3.33
2023-05-16T04:16:24.022Z,3.13
2023-05-16T04:18:50.786Z,2.57
2023-05-16T04:21:17.402Z,2.30
2023-05-16T04:23:44.063Z,2.50
2023-05-16T04:26:10.650Z,3.50
2023-05-16T04:28:37.339Z,2.80
2023-05-16T04:31:03.965Z,2.50
2023-05-16T04:33:30.600Z,2.30
2023-05-16T04:35:58.554Z,2.80
2023-05-16T04:38:25.110Z,3.10
2023-05-16T04:40:52.473Z,2.77
2023-05-16T04:43:19.871Z,2.33
2023-05-16T04:45:47.134Z,2.63
2023-05-16T04:48:13.666Z,2.80
2023-05-16T04:50:40.311Z,2.33
2023-05-16T04:53:07.298Z,2.43
2023-05-16T04:55:33.880Z,2.17
2023-05-16T04:58:00.854Z,2.67
2023-05-16T05:00:28.367Z,3.17
2023-05-16T05:02:55.325Z,2.20
2023-05-16T05:05:22.304Z,2.73
2023-05-16T05:07:49.154Z,3.27
2023-05-16T05:10:16.268Z,2.37
2023-05-16T05:12:42.820Z,2.60
2023-05-16T05:15:09.563Z,2.60
2023-05-16T05:17:37.697Z,2.60
2023-05-16T05:20:08.654Z,3.30
2023-05-16T05:22:35.367Z,2.23
2023-05-16T05:25:01.907Z,2.33
2023-05-16T05:27:28.619Z,2.90
2023-05-16T05:29:55.386Z,2.50
2023-05-16T05:32:21.939Z,1.93
2023-05-16T05:34:48.508Z,2.40
2023-05-16T05:37:15.120Z,2.30
2023-05-16T05:39:41.988Z,2.20
2023-05-16T05:42:09.441Z,2.07
2023-05-16T05:44:37.835Z,2.20
2023-05-16T05:47:06.326Z,2.37
2023-05-16T05:49:33.169Z,2.10
2023-05-16T05:51:59.989Z,2.77
2023-05-16T05:54:26.808Z,2.33
2023-05-16T05:56:53.475Z,2.30
2023-05-16T05:59:20.001Z,1.70
2023-05-16T06:01:46.712Z,2.50
2023-05-16T06:04:13.257Z,2.70
2023-05-16T06:06:40.215Z,2.57
2023-05-16T06:09:06.993Z,2.63
2023-05-16T06:11:33.568Z,2.10
2023-05-16T06:14:00.139Z,2.43
2023-05-16T06:16:27.080Z,2.30
2023-05-16T06:18:53.758Z,1.93
2023-05-16T06:21:20.542Z,1.90
2023-05-16T06:23:47.116Z,2.03
2023-05-16T06:26:13.696Z,2.10
2023-05-16T06:28:40.757Z,2.33
2023-05-16T06:31:07.397Z,2.37
2023-05-16T06:33:34.038Z,1.83
2023-05-16T06:36:00.664Z,1.83
2023-05-16T06:38:27.296Z,2.30
2023-05-16T06:40:53.866Z,2.00
2023-05-16T06:43:20.984Z,2.63
2023-05-16T06:45:47.747Z,1.70
2023-05-16T06:48:15.532Z,1.87
2023-05-16T06:50:42.340Z,1.70
2023-05-16T06:53:09.086Z,2.27
2023-05-16T06:55:35.735Z,2.43
2023-05-16T06:58:02.332Z,1.70
2023-05-16T07:00:28.961Z,1.60
2023-05-16T07:02:55.692Z,1.93
2023-05-16T07:05:22.325Z,2.00
2023-05-16T07:07:49.611Z,1.60
2023-05-16T07:10:16.469Z,2.20
2023-05-16T07:12:43.504Z,1.90
2023-05-16T07:15:10.670Z,1.50
2023-05-16T07:17:37.388Z,1.80
2023-05-16T07:20:05.517Z,1.70
2023-05-16T07:22:32.405Z,1.57
2023-05-16T07:25:00.974Z,1.63
2023-05-16T07:27:28.284Z,1.50
2023-05-16T07:29:54.885Z,1.77
2023-05-16T07:32:21.537Z,1.87
2023-05-16T07:34:48.368Z,1.43
2023-05-16T07:37:16.198Z,1.60
2023-05-16T07:39:42.916Z,1.70
2023-05-16T07:42:09.672Z,1.63
2023-05-16T07:44:37.382Z,1.40
2023-05-16T07:47:04.030Z,1.50
2023-05-16T07:49:30.841Z,1.27
2023-05-16T07:51:57.413Z,1.77
2023-05-16T07:54:24.025Z,1.90
2023-05-16T07:56:50.936Z,1.63
2023-05-16T07:59:17.649Z,1.80
2023-05-16T08:01:44.368Z,1.77
2023-05-16T08:04:11.374Z,1.70
2023-05-16T08:06:37.973Z,1.60
2023-05-16T08:09:04.550Z,1.60
2023-05-16T08:11:31.731Z,1.20
2023-05-16T08:13:58.366Z,1.37
2023-05-16T08:16:24.956Z,1.20
2023-05-16T08:18:52.031Z,1.13
2023-05-16T08:21:18.626Z,1.37
2023-05-16T08:23:45.493Z,1.50
2023-05-16T08:26:12.065Z,1.27
2023-05-16T08:28:38.643Z,1.73
2023-05-16T08:31:05.427Z,1.73
2023-05-16T08:33:32.042Z,1.60
2023-05-16T08:35:58.814Z,1.20
2023-05-16T08:38:25.537Z,1.27
2023-05-16T08:40:52.758Z,1.20
2023-05-16T08:43:19.665Z,1.80
2023-05-16T08:45:46.334Z,1.50
2023-05-16T08:48:15.798Z,1.30
2023-05-16T08:50:44.303Z,1.00
2023-05-16T08:53:14.632Z,1.43
2023-05-16T08:55:44.156Z,1.30
2023-05-16T08:58:11.462Z,1.47
2023-05-16T09:00:39.701Z,1.60
2023-05-16T09:03:07.574Z,2.43
2023-05-16T09:05:35.190Z,1.53
2023-05-16T09:08:01.815Z,1.43
2023-05-16T09:10:28.397Z,1.80
2023-05-16T09:12:55.093Z,1.20
2023-05-16T09:15:21.850Z,1.17
2023-05-16T09:17:49.118Z,1.23
2023-05-16T09:20:17.895Z,1.40
2023-05-16T09:22:59.410Z,0.90
2023-05-16T09:25:30.809Z,1.70
2023-05-16T09:27:59.785Z,1.30
2023-05-16T09:30:31.309Z,1.10
2023-05-16T09:32:59.117Z,1.47
2023-05-16T09:35:43.138Z,1.30
2023-05-16T09:38:17.946Z,1.20
2023-05-16T09:40:45.362Z,1.13
2023-05-16T09:43:16.217Z,1.50
2023-05-16T09:45:47.931Z,1.07
2023-05-16T09:48:15.820Z,1.63
2023-05-16T09:50:49.873Z,1.57
2023-05-16T09:53:16.719Z,1.33
2023-05-16T09:55:43.543Z,1.20
2023-05-16T09:58:10.149Z,1.33
2023-05-16T10:00:38.011Z,1.50
2023-05-16T10:03:05.856Z,1.50
2023-05-16T10:05:34.023Z,1.47
2023-05-16T10:08:02.813Z,1.13
2023-05-16T10:10:30.200Z,1.40
2023-05-16T10:13:01.373Z,1.23
2023-05-16T10:15:29.557Z,1.13
2023-05-16T10:18:00.350Z,1.40
2023-05-16T10:20:27.457Z,1.17
2023-05-16T10:22:56.660Z,1.03
2023-05-16T10:25:26.561Z,1.63
2023-05-16T10:27:55.057Z,1.87
2023-05-16T10:30:22.254Z,1.13
2023-05-16T10:32:50.637Z,1.33
2023-05-16T10:35:17.879Z,4.03
2023-05-16T10:37:44.771Z,1.20
2023-05-16T10:40:12.170Z,1.97
2023-05-16T10:42:39.439Z,1.80
2023-05-16T10:45:16.919Z,1.67
2023-05-16T10:47:57.492Z,1.80
2023-05-16T10:50:44.366Z,1.20
2023-05-16T10:53:17.116Z,1.23
2023-05-16T10:55:58.972Z,1.20
2023-05-16T10:58:31.838Z,1.60
2023-05-16T11:01:30.497Z,1.53
2023-05-16T11:03:57.140Z,1.57
2023-05-16T11:06:25.399Z,2.00
2023-05-16T11:09:10.947Z,1.30
2023-05-16T11:11:55.489Z,1.40
2023-05-16T11:14:28.928Z,1.70
2023-05-16T11:17:23.461Z,1.53
2023-05-16T11:19:56.149Z,1.23
2023-05-16T11:22:43.273Z,1.43
2023-05-16T11:25:10.858Z,1.13
2023-05-16T11:27:45.852Z,1.30
2023-05-16T11:30:15.450Z,1.60
2023-05-16T11:32:44.707Z,1.30
2023-05-16T11:35:14.974Z,0.90
2023-05-16T11:37:42.755Z,1.30
2023-05-16T11:40:12.117Z,1.20
2023-05-16T11:42:44.540Z,1.00
2023-05-16T11:45:24.254Z,1.10
2023-05-16T11:47:51.320Z,1.17
2023-05-16T11:50:19.966Z,0.70
2023-05-16T11:52:49.170Z,0.80
2023-05-16T11:55:28.101Z,0.80
2023-05-16T11:57:59.951Z,1.00
2023-05-16T12:00:27.228Z,0.90
2023-05-16T12:02:55.929Z,1.03
2023-05-16T12:05:27.148Z,1.10
2023-05-16T12:07:54.667Z,0.90
2023-05-16T12:10:21.383Z,1.00
2023-05-16T12:12:52.438Z,1.20
2023-05-16T12:15:19.547Z,1.00
2023-05-16T12:17:47.656Z,1.03
2023-05-16T12:20:16.316Z,1.23
2023-05-16T12:22:44.494Z,1.33
2023-05-16T12:25:32.006Z,1.20
2023-05-16T12:28:01.531Z,0.90
2023-05-16T12:30:30.233Z,1.00
2023-05-16T12:32:58.574Z,1.60
2023-05-16T12:35:30.018Z,0.97
2023-05-16T12:37:56.908Z,0.90
2023-05-16T12:40:24.028Z,1.17
2023-05-16T12:42:52.560Z,1.90
2023-05-16T12:45:19.356Z,1.17
2023-05-16T12:47:47.115Z,1.07
2023-05-16T12:50:15.016Z,1.30
2023-05-16T12:52:52.386Z,1.20
2023-05-16T12:55:20.380Z,1.00
2023-05-16T12:57:48.471Z,1.23
2023-05-16T13:00:18.778Z,1.30
2023-05-16T13:02:47.499Z,1.20
2023-05-16T13:05:14.825Z,1.77
2023-05-16T13:07:41.504Z,1.00
2023-05-16T13:10:13.655Z,1.10
2023-05-16T13:12:42.268Z,1.03
2023-05-16T13:15:11.198Z,1.50
2023-05-16T13:17:39.301Z,1.00
2023-05-16T13:20:09.970Z,1.37
2023-05-16T13:22:37.090Z,1.57
2023-05-16T13:25:04.829Z,0.70
2023-05-16T13:27:32.688Z,1.07
2023-05-16T13:29:59.445Z,0.83
2023-05-16T13:32:26.771Z,0.80
2023-05-16T13:34:54.490Z,1.00
2023-05-16T13:37:21.379Z,0.90
2023-05-16T13:39:48.580Z,0.90
2023-05-16T13:42:15.210Z,0.90
2023-05-16T13:44:42.389Z,0.90
2023-05-16T13:47:09.035Z,1.40
2023-05-16T13:49:35.676Z,1.30
2023-05-16T13:52:02.621Z,0.90
2023-05-16T13:54:29.586Z,1.47
2023-05-16T13:56:56.271Z,2.80
2023-05-16T13:59:39.560Z,1.60
2023-05-16T14:02:09.655Z,1.60
2023-05-16T14:04:37.027Z,1.43
2023-05-16T14:07:03.871Z,1.57
2023-05-16T14:09:31.375Z,1.33
2023-05-16T14:11:57.946Z,1.00
2023-05-16T14:14:24.479Z,1.10
2023-05-16T14:16:51.445Z,1.50
2023-05-16T14:19:19.626Z,1.00
2023-05-16T14:21:46.834Z,1.37
2023-05-16T14:24:13.490Z,1.17
2023-05-16T14:26:40.098Z,1.57
2023-05-16T14:29:06.973Z,1.47
2023-05-16T14:31:33.884Z,1.47
2023-05-16T14:34:00.473Z,1.57
2023-05-16T14:36:27.375Z,1.33
2023-05-16T14:38:53.939Z,1.50
2023-05-16T14:41:23.247Z,1.10
2023-05-16T14:43:50.426Z,1.40
2023-05-16T14:46:17.546Z,1.97
2023-05-16T14:48:44.332Z,1.40
2023-05-16T14:51:11.936Z,1.37
2023-05-16T14:53:38.599Z,1.60
2023-05-16T14:56:05.317Z,1.13
2023-05-16T14:58:32.232Z,1.00
2023-05-16T15:00:58.984Z,1.10
2023-05-16T15:03:25.775Z,1.33
2023-05-16T15:05:52.747Z,1.50
2023-05-16T15:08:19.716Z,2.17
2023-05-16T15:10:46.574Z,1.40
2023-05-16T15:13:13.242Z,1.57
2023-05-16T15:15:39.950Z,1.57
2023-05-16T15:18:06.727Z,1.10
2023-05-16T15:20:33.570Z,1.23
2023-05-16T15:23:00.562Z,1.33
2023-05-16T15:25:27.776Z,1.37
2023-05-16T15:27:55.278Z,1.27
2023-05-16T15:30:22.303Z,1.30
2023-05-16T15:32:48.959Z,1.90
2023-05-16T15:35:16.246Z,1.70
2023-05-16T15:37:43.721Z,1.20
2023-05-16T15:40:11.772Z,1.80
2023-05-16T15:42:38.375Z,1.60
2023-05-16T15:45:05.918Z,1.60
2023-05-16T15:47:32.594Z,1.83
2023-05-16T15:49:59.329Z,1.83
2023-05-16T15:52:25.977Z,1.40
2023-05-16T15:54:52.549Z,1.23
2023-05-16T15:57:19.228Z,1.73
2023-05-16T15:59:45.825Z,1.50
2023-05-16T16:02:12.692Z,1.23
2023-05-16T16:04:39.376Z,0.90
2023-05-16T16:07:05.963Z,1.10
2023-05-16T16:09:32.546Z,1.20
2023-05-16T16:11:59.143Z,1.67
2023-05-16T16:14:26.004Z,1.10
2023-05-16T16:16:52.654Z,1.30
2023-05-16T16:19:19.357Z,1.33
2023-05-16T16:21:46.333Z,1.67
2023-05-16T16:24:13.708Z,1.77
2023-05-16T16:26:41.403Z,1.40
2023-05-16T16:29:08.018Z,1.37
2023-05-16T16:31:34.791Z,1.93
2023-05-16T16:38:53.757Z,1.80
2023-05-16T16:41:20.714Z,1.43
2023-05-16T16:43:47.395Z,2.10
2023-05-16T16:46:14.355Z,1.57
2023-05-16T16:48:40.921Z,1.50
2023-05-16T16:51:07.963Z,1.93
2023-05-16T16:53:37.794Z,1.87
2023-05-16T16:56:04.553Z,1.83
2023-05-16T16:58:31.370Z,2.13
2023-05-16T17:00:58.255Z,1.97
2023-05-16T17:03:25.043Z,2.10
2023-05-16T17:05:53.122Z,2.07
2023-05-16T17:08:20.486Z,2.30
2023-05-16T17:10:48.042Z,2.10
2023-05-16T17:13:17.409Z,2.50
2023-05-16T17:15:47.421Z,2.53
2023-05-16T17:18:15.022Z,2.33
2023-05-16T17:20:41.867Z,2.10
2023-05-16T17:23:09.017Z,1.83
2023-05-16T17:25:35.845Z,3.00
2023-05-16T17:28:02.695Z,2.57
2023-05-16T17:30:29.548Z,2.20
2023-05-16T17:32:56.331Z,2.10
2023-05-16T17:35:23.319Z,2.23
2023-05-16T17:37:51.029Z,2.03
2023-05-16T17:40:18.052Z,1.63
2023-05-16T17:42:45.638Z,2.20
2023-05-16T17:45:14.731Z,2.53
2023-05-16T17:47:42.039Z,2.40
2023-05-16T17:50:10.532Z,2.63
2023-05-16T17:52:39.351Z,2.60
2023-05-16T17:55:08.746Z,2.40
2023-05-16T17:57:36.432Z,2.53
2023-05-16T18:00:05.560Z,2.37
2023-05-16T18:02:32.911Z,2.70
2023-05-16T18:05:00.037Z,2.60
2023-05-16T18:07:27.089Z,2.50
2023-05-16T18:09:54.438Z,2.73
2023-05-16T18:12:22.047Z,2.60
2023-05-16T18:14:50.382Z,2.50
2023-05-16T18:17:17.233Z,2.63
2023-05-16T18:19:44.356Z,2.30
2023-05-16T18:22:12.802Z,2.30
2023-05-16T18:24:39.973Z,3.40
2023-05-16T18:27:07.000Z,3.00
2023-05-16T18:29:34.321Z,3.20
2023-05-16T18:32:01.477Z,2.10
2023-05-16T18:34:28.324Z,2.47
2023-05-16T18:36:55.151Z,2.70
2023-05-16T18:39:22.022Z,3.00
2023-05-16T18:41:49.195Z,2.40
2023-05-16T18:44:17.284Z,2.17
2023-05-16T18:46:46.065Z,3.30
2023-05-16T18:49:13.599Z,2.33
2023-05-16T18:51:40.662Z,3.10
2023-05-16T18:54:07.526Z,3.20
2023-05-16T18:56:34.752Z,2.90
2023-05-16T18:59:01.555Z,2.87
2023-05-16T19:01:28.700Z,2.47
2023-05-16T19:03:55.950Z,3.83
2023-05-16T19:06:23.022Z,2.77
2023-05-16T19:08:49.801Z,3.13
2023-05-16T19:11:17.578Z,3.10
2023-05-16T19:13:47.107Z,3.80
2023-05-16T19:16:15.239Z,3.03
2023-05-16T19:18:42.420Z,3.00
2023-05-16T19:21:10.902Z,2.57
2023-05-16T19:23:37.769Z,2.90
2023-05-16T19:26:06.465Z,3.40
2023-05-16T19:28:34.595Z,2.93
2023-05-16T19:31:01.662Z,3.40
2023-05-16T19:33:28.391Z,3.70
2023-05-16T19:35:57.680Z,3.87
2023-05-16T19:38:25.155Z,2.50
2023-05-16T19:40:53.053Z,2.73
2023-05-16T19:43:19.904Z,3.40
2023-05-16T19:45:46.699Z,3.00
2023-05-16T19:48:13.904Z,3.37
2023-05-16T19:50:40.971Z,2.93
2023-05-16T19:53:07.989Z,3.27
2023-05-16T19:55:37.878Z,3.50
2023-05-16T19:58:05.991Z,3.20
2023-05-16T20:00:32.750Z,3.37
2023-05-16T20:02:59.622Z,3.10
2023-05-16T20:05:27.022Z,3.80
2023-05-16T20:07:55.353Z,2.93
2023-05-16T20:10:22.314Z,3.33
2023-05-16T20:12:49.045Z,3.40
2023-05-16T20:15:16.187Z,3.43
2023-05-16T20:17:43.098Z,3.40
2023-05-16T20:20:10.589Z,2.67
2023-05-16T20:22:41.457Z,2.63
2023-05-16T20:25:09.637Z,2.80
2023-05-16T20:27:36.356Z,3.50
2023-05-16T20:30:04.753Z,3.40
2023-05-16T20:32:31.499Z,3.97
2023-05-16T20:34:58.617Z,3.10
2023-05-16T20:37:28.285Z,3.07
2023-05-16T20:39:55.537Z,3.20
2023-05-16T20:42:22.325Z,3.70
2023-05-16T20:44:49.187Z,3.00
2023-05-16T20:47:17.030Z,3.17
2023-05-16T20:49:43.957Z,3.33
2023-05-16T20:52:11.313Z,3.17
2023-05-16T20:54:38.045Z,3.70
2023-05-16T20:57:05.327Z,2.43
2023-05-16T20:59:32.367Z,3.23
2023-05-16T21:01:59.422Z,2.80
2023-05-16T21:04:26.089Z,3.20
2023-05-16T21:06:52.681Z,2.70
2023-05-16T21:09:19.366Z,2.90
2023-05-16T21:11:46.305Z,3.67
2023-05-16T21:14:12.896Z,3.33
2023-05-16T21:16:39.926Z,2.97
2023-05-16T21:19:06.639Z,3.93
2023-05-16T21:21:33.446Z,3.20
2023-05-16T21:24:00.061Z,3.20
2023-05-16T21:26:26.665Z,2.87
2023-05-16T21:28:55.521Z,3.33
2023-05-16T21:31:23.671Z,3.57
2023-05-16T21:33:53.019Z,3.30
2023-05-16T21:36:20.598Z,2.70
2023-05-16T21:38:47.390Z,3.30
2023-05-16T21:41:14.747Z,3.20
2023-05-16T21:43:41.343Z,3.00
2023-05-16T21:46:07.995Z,2.77
2023-05-16T21:48:34.953Z,2.93
2023-05-16T21:51:01.764Z,2.90
2023-05-16T21:53:28.401Z,3.00
2023-05-16T21:55:55.250Z,3.13
2023-05-16T21:58:22.083Z,3.87
2023-05-16T22:00:49.489Z,2.93
2023-05-16T22:03:19.047Z,2.87
2023-05-16T22:05:46.599Z,3.23
2023-05-16T22:08:13.322Z,3.00
2023-05-16T22:10:40.560Z,3.20
2023-05-16T22:13:08.009Z,3.30
2023-05-16T22:15:34.819Z,2.80
2023-05-16T22:18:01.670Z,2.50
2023-05-16T22:20:28.829Z,3.47
2023-05-16T22:22:55.480Z,2.93
2023-05-16T22:25:22.487Z,3.20
2023-05-16T22:27:49.326Z,3.30
2023-05-16T22:30:16.318Z,3.40
2023-05-16T22:32:43.165Z,3.63
2023-05-16T22:35:09.848Z,2.67
2023-05-16T22:37:36.450Z,2.40
2023-05-16T22:40:03.133Z,2.50
2023-05-16T22:42:31.247Z,3.00
2023-05-16T22:44:57.946Z,3.07
2023-05-16T22:47:24.571Z,3.10
2023-05-16T22:49:51.162Z,2.43
2023-05-16T22:52:17.760Z,3.10
2023-05-16T22:54:44.377Z,3.40
2023-05-16T22:57:11.373Z,2.20
2023-05-16T22:59:38.226Z,3.13
2023-05-16T23:02:04.845Z,2.70
2023-05-16T23:04:31.446Z,3.07
2023-05-16T23:06:58.096Z,2.33
2023-05-16T23:09:24.785Z,2.83
2023-05-16T23:11:51.406Z,3.53
2023-05-16T23:14:18.296Z,3.40
2023-05-16T23:16:44.858Z,2.80
2023-05-16T23:19:11.560Z,3.97
2023-05-16T23:21:39.963Z,3.63
2023-05-16T23:24:06.764Z,3.90
2023-05-16T23:26:33.382Z,3.37
2023-05-16T23:29:00.665Z,3.37
2023-05-16T23:31:27.296Z,2.73
2023-05-16T23:33:54.185Z,3.30
2023-05-16T23:36:20.862Z,4.03
2023-05-16T23:38:47.926Z,3.77
2023-05-16T23:41:14.548Z,3.07
2023-05-16T23:43:41.471Z,3.90
2023-05-16T23:46:08.048Z,3.40
2023-05-16T23:48:36.534Z,4.50
2023-05-16T23:51:07.221Z,3.40
2023-05-16T23:53:37.390Z,3.83
2023-05-16T23:56:04.206Z,4.13
2023-05-16T23:58:31.188Z,3.67
